createdAt,value
2017-11-12T00:01:01.671Z,47.51
2017-11-12T00:02:10.649Z,47.31
2017-11-12T00:03:19.959Z,47.41
2017-11-12T00:04:28.932Z,47.41
2017-11-12T00:05:38.550Z,47.31
2017-11-12T00:06:47.520Z,47.51
2017-11-12T00:07:56.170Z,47.41
2017-11-12T00:09:05.812Z,47.51
2017-11-12T00:10:15.114Z,47.22
2017-11-12T00:11:24.084Z,47.6
2017-11-12T00:12:33.053Z,47.22
2017-11-12T00:13:42.375Z,47.41
2017-11-12T00:14:52.017Z,47.31
2017-11-12T00:16:01.333Z,47.41
2017-11-12T00:17:10.956Z,47.6
2017-11-12T00:18:20.030Z,47.41
2017-11-12T00:19:30.033Z,47.31
2017-11-12T00:20:39.350Z,47.22
2017-11-12T00:21:49.001Z,47.22
2017-11-12T00:22:57.641Z,47.22
2017-11-12T00:24:06.937Z,47.31
2017-11-12T00:25:15.935Z,47.22
2017-11-12T00:26:25.572Z,47.31
2017-11-12T00:27:34.534Z,47.41
2017-11-12T00:28:44.180Z,47.31
2017-11-12T00:29:53.903Z,47.22
2017-11-12T00:31:03.537Z,47.31
2017-11-12T00:32:12.838Z,47.31
2017-11-12T00:33:21.805Z,47.41
2017-11-12T00:34:31.104Z,47.31
2017-11-12T00:35:40.430Z,47.41
2017-11-12T00:36:50.427Z,47.41
2017-11-12T00:37:59.744Z,47.41
2017-11-12T00:39:09.078Z,47.41
2017-11-12T00:40:19.032Z,47.12
2017-11-12T00:41:27.668Z,47.41
2017-11-12T00:42:37.301Z,47.31
2017-11-12T00:43:46.600Z,47.31
2017-11-12T00:44:56.248Z,47.31
2017-11-12T00:46:05.564Z,47.41
2017-11-12T00:47:14.876Z,47.41
2017-11-12T00:48:24.510Z,47.22
2017-11-12T00:49:33.815Z,47.12
2017-11-12T00:50:43.797Z,47.22
2017-11-12T00:51:52.785Z,47.31
2017-11-12T00:53:02.433Z,47.22
2017-11-12T00:54:11.420Z,47.31
2017-11-12T00:55:20.750Z,47.12
2017-11-12T00:56:29.715Z,47.51
2017-11-12T00:57:38.364Z,47.7
2017-11-12T00:58:47.018Z,47.7
2017-11-12T00:59:56.967Z,47.51
2017-11-12T01:01:05.945Z,47.51
2017-11-12T01:02:14.596Z,47.51
2017-11-12T01:03:23.233Z,47.6
2017-11-12T01:04:32.537Z,47.51
2017-11-12T01:05:42.177Z,47.7
2017-11-12T01:06:51.487Z,47.8
2017-11-12T01:08:01.436Z,47.6
2017-11-12T01:09:10.731Z,47.6
2017-11-12T01:10:20.699Z,47.41
2017-11-12T01:11:29.667Z,47.51
2017-11-12T01:12:39.305Z,47.6
2017-11-12T01:13:48.622Z,47.6
2017-11-12T01:14:58.021Z,47.6
2017-11-12T01:16:07.330Z,47.6
2017-11-12T01:17:16.621Z,47.7
2017-11-12T01:18:26.249Z,47.7
2017-11-12T01:19:35.561Z,47.51
2017-11-12T01:20:44.879Z,47.7
2017-11-12T01:21:54.496Z,47.51
2017-11-12T01:23:03.813Z,47.22
2017-11-12T01:24:13.447Z,47.51
2017-11-12T01:25:23.073Z,47.7
2017-11-12T01:26:32.039Z,47.7
2017-11-12T01:27:41.434Z,47.6
2017-11-12T01:28:50.727Z,47.6
2017-11-12T01:30:00.357Z,47.6
2017-11-12T01:31:09.668Z,47.51
2017-11-12T01:32:18.976Z,47.31
2017-11-12T01:33:28.615Z,47.6
2017-11-12T01:34:38.249Z,47.6
2017-11-12T01:35:47.888Z,47.6
2017-11-12T01:36:57.217Z,47.6
2017-11-12T01:38:06.178Z,47.6
2017-11-12T01:39:16.154Z,47.6
2017-11-12T01:40:25.457Z,47.51
2017-11-12T01:41:34.431Z,47.6
2017-11-12T01:42:43.397Z,47.51
2017-11-12T01:43:52.708Z,47.6
2017-11-12T01:45:01.502Z,47.6
2017-11-12T01:46:10.806Z,47.6
2017-11-12T01:47:19.776Z,47.6
2017-11-12T01:48:28.745Z,47.7
2017-11-12T01:49:37.710Z,47.7
2017-11-12T01:50:47.375Z,47.51
2017-11-12T01:51:56.669Z,47.49
2017-11-12T01:53:06.288Z,47.51
2017-11-12T01:54:15.912Z,47.8
2017-11-12T01:55:25.881Z,47.51
2017-11-12T01:56:34.863Z,47.8
2017-11-12T01:57:43.853Z,47.7
2017-11-12T01:58:53.185Z,47.7
2017-11-12T02:00:02.463Z,47.7
2017-11-12T02:01:11.437Z,47.7
2017-11-12T02:02:20.849Z,47.8
2017-11-12T02:03:30.137Z,47.8
2017-11-12T02:04:39.443Z,47.7
2017-11-12T02:05:48.730Z,47.7
2017-11-12T02:06:58.355Z,47.8
2017-11-12T02:08:07.673Z,47.8
2017-11-12T02:09:16.962Z,47.41
2017-11-12T02:10:26.261Z,47.7
2017-11-12T02:11:34.897Z,47.67
2017-11-12T02:12:44.555Z,47.6
2017-11-12T02:13:53.530Z,47.77
2017-11-12T02:15:03.494Z,47.39
2017-11-12T02:16:12.485Z,47.7
2017-11-12T02:17:22.120Z,47.7
2017-11-12T02:18:31.420Z,47.58
2017-11-12T02:19:40.396Z,47.58
2017-11-12T02:20:50.022Z,47.49
2017-11-12T02:22:00.314Z,47.39
2017-11-12T02:23:10.307Z,47.51
2017-11-12T02:24:19.305Z,47.58
2017-11-12T02:25:28.374Z,47.6
2017-11-12T02:26:37.680Z,47.6
2017-11-12T02:27:46.971Z,47.6
2017-11-12T02:28:56.600Z,47.67
2017-11-12T02:30:05.572Z,47.51
2017-11-12T02:31:15.200Z,47.8
2017-11-12T02:32:24.168Z,47.58
2017-11-12T02:33:33.492Z,47.6
2017-11-12T02:34:43.124Z,47.58
2017-11-12T02:35:52.430Z,47.67
2017-11-12T02:37:01.850Z,47.67
2017-11-12T02:38:11.481Z,47.58
2017-11-12T02:39:20.783Z,47.51
2017-11-12T02:40:30.409Z,47.89
2017-11-12T02:41:40.043Z,47.41
2017-11-12T02:42:49.352Z,47.39
2017-11-12T02:43:57.981Z,47.77
2017-11-12T02:45:07.639Z,47.77
2017-11-12T02:46:17.284Z,47.58
2017-11-12T02:47:26.603Z,47.49
2017-11-12T02:48:35.898Z,47.6
2017-11-12T02:49:44.864Z,47.49
2017-11-12T02:50:53.856Z,47.49
2017-11-12T02:52:03.185Z,47.67
2017-11-12T02:53:12.505Z,47.49
2017-11-12T02:54:21.865Z,47.7
2017-11-12T02:55:30.826Z,47.58
2017-11-12T02:56:39.812Z,47.6
2017-11-12T02:57:49.113Z,47.49
2017-11-12T02:58:59.103Z,47.49
2017-11-12T03:00:08.842Z,47.49
2017-11-12T03:01:18.800Z,47.51
2017-11-12T03:02:28.436Z,47.39
2017-11-12T03:03:37.401Z,47.49
2017-11-12T03:04:46.705Z,47.77
2017-11-12T03:05:56.011Z,47.39
2017-11-12T03:07:05.322Z,47.6
2017-11-12T03:08:14.298Z,47.89
2017-11-12T03:09:23.602Z,47.39
2017-11-12T03:10:33.252Z,47.49
2017-11-12T03:11:42.249Z,47.77
2017-11-12T03:12:51.215Z,47.58
2017-11-12T03:14:00.849Z,47.39
2017-11-12T03:15:10.479Z,47.41
2017-11-12T03:16:19.796Z,47.58
2017-11-12T03:17:29.782Z,47.39
2017-11-12T03:18:39.072Z,47.49
2017-11-12T03:19:48.371Z,47.58
2017-11-12T03:20:58.369Z,47.58
2017-11-12T03:22:08.006Z,47.49
2017-11-12T03:23:17.657Z,47.67
2017-11-12T03:24:26.956Z,47.49
2017-11-12T03:25:36.913Z,47.49
2017-11-12T03:26:45.883Z,47.67
2017-11-12T03:27:55.184Z,47.58
2017-11-12T03:29:04.899Z,47.49
2017-11-12T03:30:14.864Z,47.49
2017-11-12T03:31:24.502Z,47.77
2017-11-12T03:32:34.144Z,47.67
2017-11-12T03:33:43.430Z,47.49
2017-11-12T03:34:52.402Z,47.67
2017-11-12T03:36:01.374Z,47.87
2017-11-12T03:37:11.009Z,47.67
2017-11-12T03:38:20.652Z,47.58
2017-11-12T03:39:30.675Z,47.77
2017-11-12T03:40:39.639Z,47.49
2017-11-12T03:41:49.278Z,47.67
2017-11-12T03:42:58.902Z,47.67
2017-11-12T03:44:08.899Z,47.67
2017-11-12T03:45:17.871Z,47.67
2017-11-12T03:46:27.264Z,47.49
2017-11-12T03:47:36.243Z,47.67
2017-11-12T03:48:45.540Z,47.87
2017-11-12T03:49:54.841Z,47.49
2017-11-12T03:51:04.788Z,47.77
2017-11-12T03:52:13.750Z,47.49
2017-11-12T03:53:23.720Z,47.77
2017-11-12T03:54:32.364Z,47.77
2017-11-12T03:55:41.028Z,47.87
2017-11-12T03:56:50.355Z,47.77
2017-11-12T03:57:59.623Z,47.49
2017-11-12T03:59:08.594Z,47.49
2017-11-12T04:00:18.228Z,47.49
2017-11-12T04:01:27.536Z,47.49
2017-11-12T04:02:37.501Z,47.77
2017-11-12T04:03:46.465Z,47.58
2017-11-12T04:04:55.759Z,47.67
2017-11-12T04:06:05.088Z,47.77
2017-11-12T04:07:14.385Z,47.67
2017-11-12T04:08:24.040Z,47.49
2017-11-12T04:09:33.064Z,47.58
2017-11-12T04:10:42.362Z,47.49
2017-11-12T04:11:52.314Z,47.58
2017-11-12T04:13:01.644Z,47.67
2017-11-12T04:14:11.624Z,47.87
2017-11-12T04:15:20.369Z,47.49
2017-11-12T04:16:30.662Z,47.49
2017-11-12T04:17:39.669Z,47.49
2017-11-12T04:18:48.999Z,47.49
2017-11-12T04:19:58.622Z,47.77
2017-11-12T04:21:07.291Z,47.49
2017-11-12T04:22:17.284Z,47.77
2017-11-12T04:23:26.915Z,47.49
2017-11-12T04:24:36.546Z,47.77
2017-11-12T04:25:45.176Z,47.67
2017-11-12T04:26:54.477Z,47.77
2017-11-12T04:28:03.786Z,47.77
2017-11-12T04:29:13.089Z,47.67
2017-11-12T04:30:22.380Z,47.77
2017-11-12T04:31:31.338Z,47.67
2017-11-12T04:32:39.990Z,47.67
2017-11-12T04:33:49.291Z,47.49
2017-11-12T04:34:58.269Z,47.49
2017-11-12T04:36:06.898Z,47.49
2017-11-12T04:37:15.873Z,47.67
2017-11-12T04:38:25.501Z,47.77
2017-11-12T04:39:34.807Z,47.58
2017-11-12T04:40:43.449Z,47.49
2017-11-12T04:41:53.403Z,47.49
2017-11-12T04:43:02.370Z,47.58
2017-11-12T04:44:12.005Z,47.49
2017-11-12T04:45:21.638Z,47.67
2017-11-12T04:46:30.603Z,47.87
2017-11-12T04:47:40.569Z,47.67
2017-11-12T04:48:49.875Z,47.49
2017-11-12T04:49:58.848Z,47.67
2017-11-12T04:51:07.498Z,47.77
2017-11-12T04:52:17.449Z,47.49
2017-11-12T04:53:27.421Z,47.49
2017-11-12T04:54:36.716Z,47.49
2017-11-12T04:55:45.693Z,47.49
2017-11-12T04:56:54.650Z,47.49
2017-11-12T04:58:03.303Z,47.67
2017-11-12T04:59:12.627Z,47.77
2017-11-12T05:00:21.922Z,47.49
2017-11-12T05:01:31.228Z,47.77
2017-11-12T05:02:40.873Z,47.58
2017-11-12T05:03:49.846Z,47.49
2017-11-12T05:04:59.138Z,47.39
2017-11-12T05:06:07.769Z,47.67
2017-11-12T05:07:17.080Z,47.67
2017-11-12T05:08:27.053Z,47.49
2017-11-12T05:09:36.359Z,47.49
2017-11-12T05:10:45.657Z,47.49
2017-11-12T05:11:55.287Z,47.49
2017-11-12T05:13:04.263Z,47.67
2017-11-12T05:14:13.566Z,47.49
2017-11-12T05:15:23.201Z,47.49
2017-11-12T05:16:32.504Z,47.67
2017-11-12T05:17:41.797Z,47.49
2017-11-12T05:18:51.756Z,47.67
2017-11-12T05:20:01.400Z,47.67
2017-11-12T05:21:10.364Z,47.49
2017-11-12T05:22:19.339Z,47.49
2017-11-12T05:23:28.971Z,47.49
2017-11-12T05:24:38.605Z,47.49
2017-11-12T05:25:47.911Z,47.49
2017-11-12T05:26:57.217Z,47.49
2017-11-12T05:28:06.509Z,47.49
2017-11-12T05:29:16.146Z,47.77
2017-11-12T05:30:24.799Z,47.58
2017-11-12T05:31:33.769Z,47.58
2017-11-12T05:32:44.051Z,47.77
2017-11-12T05:33:53.685Z,47.58
2017-11-12T05:35:02.719Z,47.49
2017-11-12T05:36:12.075Z,47.77
2017-11-12T05:37:20.724Z,47.49
2017-11-12T05:38:29.696Z,47.58
2017-11-12T05:39:39.321Z,47.39
2017-11-12T05:40:49.290Z,47.58
2017-11-12T05:41:58.682Z,47.58
2017-11-12T05:43:07.974Z,47.67
2017-11-12T05:44:17.273Z,47.58
2017-11-12T05:45:26.258Z,47.58
2017-11-12T05:46:35.919Z,47.77
2017-11-12T05:47:45.654Z,47.58
2017-11-12T05:48:54.959Z,47.67
2017-11-12T05:50:04.583Z,47.58
2017-11-12T05:51:13.892Z,47.49
2017-11-12T05:52:23.524Z,47.49
2017-11-12T05:53:33.156Z,47.49
2017-11-12T05:54:42.453Z,47.58
2017-11-12T05:55:51.443Z,47.58
2017-11-12T05:57:01.096Z,47.58
2017-11-12T05:58:10.069Z,47.58
2017-11-12T05:59:19.039Z,47.67
2017-11-12T06:00:28.339Z,47.67
2017-11-12T06:01:37.304Z,47.67
2017-11-12T06:02:46.979Z,47.49
2017-11-12T06:03:55.693Z,47.67
2017-11-12T06:05:05.674Z,47.49
2017-11-12T06:06:14.987Z,47.58
2017-11-12T06:07:24.616Z,47.67
2017-11-12T06:08:33.594Z,47.29
2017-11-12T06:09:43.221Z,47.67
2017-11-12T06:10:52.852Z,47.67
2017-11-12T06:12:02.158Z,47.67
2017-11-12T06:13:11.484Z,47.67
2017-11-12T06:14:21.163Z,47.77
2017-11-12T06:15:31.127Z,47.77
2017-11-12T06:16:40.424Z,47.49
2017-11-12T06:17:50.391Z,47.49
2017-11-12T06:19:00.082Z,47.49
2017-11-12T06:20:09.380Z,47.58
2017-11-12T06:21:19.037Z,47.58
2017-11-12T06:22:27.999Z,47.58
2017-11-12T06:23:37.321Z,47.49
2017-11-12T06:24:46.289Z,47.49
2017-11-12T06:25:55.605Z,47.77
2017-11-12T06:27:04.242Z,47.67
2017-11-12T06:28:13.903Z,47.58
2017-11-12T06:29:23.532Z,47.67
2017-11-12T06:30:32.840Z,47.49
2017-11-12T06:31:41.814Z,47.58
2017-11-12T06:32:51.794Z,47.58
2017-11-12T06:34:00.772Z,47.58
2017-11-12T06:35:10.066Z,47.58
2017-11-12T06:36:19.056Z,47.58
2017-11-12T06:37:28.365Z,47.49
2017-11-12T06:38:38.010Z,47.58
2017-11-12T06:39:46.998Z,47.49
2017-11-12T06:40:56.636Z,47.49
2017-11-12T06:42:05.928Z,47.49
2017-11-12T06:43:15.561Z,47.67
2017-11-12T06:44:25.202Z,47.58
2017-11-12T06:45:34.175Z,47.49
2017-11-12T06:46:43.487Z,47.67
2017-11-12T06:47:52.492Z,47.67
2017-11-12T06:49:02.471Z,47.67
2017-11-12T06:50:11.785Z,47.77
2017-11-12T06:51:21.744Z,47.29
2017-11-12T06:52:30.730Z,47
2017-11-12T06:53:39.729Z,47.29
2017-11-12T06:54:49.365Z,47.67
2017-11-12T06:55:59.323Z,47.58
2017-11-12T06:57:08.948Z,47.49
2017-11-12T06:58:18.256Z,47.49
2017-11-12T06:59:28.218Z,47.77
2017-11-12T07:00:37.521Z,47.77
2017-11-12T07:01:47.161Z,47.58
2017-11-12T07:02:57.115Z,47.39
2017-11-12T07:04:06.415Z,47.1
2017-11-12T07:05:15.715Z,47.1
2017-11-12T07:06:25.355Z,47.39
2017-11-12T07:07:34.994Z,47.58
2017-11-12T07:08:44.310Z,47.39
2017-11-12T07:09:53.956Z,47.29
2017-11-12T07:11:02.912Z,47.29
2017-11-12T07:12:11.880Z,47.29
2017-11-12T07:13:21.199Z,47.29
2017-11-12T07:14:30.518Z,47.29
2017-11-12T07:15:39.819Z,47.29
2017-11-12T07:16:49.795Z,47.49
2017-11-12T07:17:58.444Z,47.39
2017-11-12T07:19:07.750Z,47.29
2017-11-12T07:20:17.820Z,47.29
2017-11-12T07:21:26.453Z,47.29
2017-11-12T07:22:35.752Z,47.29
2017-11-12T07:23:45.717Z,47.39
2017-11-12T07:24:55.352Z,47.39
2017-11-12T07:26:04.659Z,47.39
2017-11-12T07:27:13.646Z,47.29
2017-11-12T07:28:23.600Z,47.19
2017-11-12T07:29:32.906Z,47.39
2017-11-12T07:30:42.211Z,47.29
2017-11-12T07:31:50.965Z,47.29
2017-11-12T07:33:00.599Z,47.1
2017-11-12T07:34:09.570Z,47.29
2017-11-12T07:35:18.863Z,47.29
2017-11-12T07:36:28.200Z,47.39
2017-11-12T07:37:37.513Z,47.39
2017-11-12T07:38:47.200Z,47.39
2017-11-12T07:39:56.500Z,47
2017-11-12T07:41:05.805Z,47.39
2017-11-12T07:42:16.124Z,47.19
2017-11-12T07:43:25.438Z,47.1
2017-11-12T07:44:34.747Z,47.49
2017-11-12T07:45:43.711Z,47.49
2017-11-12T07:46:53.683Z,47.29
2017-11-12T07:48:02.918Z,47.49
2017-11-12T07:49:12.254Z,47.29
2017-11-12T07:50:21.935Z,47.19
2017-11-12T07:51:30.989Z,47.29
2017-11-12T07:52:39.954Z,47.19
2017-11-12T07:53:48.918Z,47.19
2017-11-12T07:54:58.561Z,47.19
2017-11-12T07:56:08.134Z,47.19
2017-11-12T07:57:17.776Z,47.49
2017-11-12T07:58:27.925Z,47.19
2017-11-12T07:59:37.958Z,47.19
2017-11-12T08:00:46.964Z,47.39
2017-11-12T08:01:55.610Z,47
2017-11-12T08:03:05.024Z,47.19
2017-11-12T08:04:15.331Z,47
2017-11-12T08:05:24.033Z,47.19
2017-11-12T08:06:34.116Z,47.19
2017-11-12T08:07:43.136Z,47.19
2017-11-12T08:08:52.146Z,47.19
2017-11-12T08:10:01.182Z,47.1
2017-11-12T08:11:11.168Z,47.19
2017-11-12T08:12:20.817Z,47.19
2017-11-12T08:13:30.149Z,47.1
2017-11-12T08:14:39.466Z,47.1
2017-11-12T08:15:48.766Z,47.39
2017-11-12T08:16:58.093Z,47.39
2017-11-12T08:18:07.420Z,47.39
2017-11-12T08:19:16.739Z,47
2017-11-12T08:20:26.096Z,47.39
2017-11-12T08:21:35.928Z,47.19
2017-11-12T08:22:45.265Z,47
2017-11-12T08:23:54.572Z,47
2017-11-12T08:25:04.453Z,47.1
2017-11-12T08:26:13.127Z,47.19
2017-11-12T08:27:22.110Z,47
2017-11-12T08:28:31.453Z,47.39
2017-11-12T08:29:40.451Z,47.29
2017-11-12T08:30:50.167Z,47.19
2017-11-12T08:31:59.820Z,47.39
2017-11-12T08:33:09.227Z,47.29
2017-11-12T08:34:18.820Z,47
2017-11-12T08:35:28.585Z,47.39
2017-11-12T08:36:38.242Z,46.91
2017-11-12T08:37:46.919Z,47.39
2017-11-12T08:38:55.917Z,47
2017-11-12T08:40:05.226Z,46.91
2017-11-12T08:41:14.547Z,46.91
2017-11-12T08:42:23.526Z,46.91
2017-11-12T08:43:32.946Z,47
2017-11-12T08:44:41.946Z,47
2017-11-12T08:48:23.964Z,47.29
2017-11-12T08:54:37.758Z,47.29
2017-11-12T08:58:19.098Z,47.19
2017-11-12T09:04:41.323Z,47.1
2017-11-12T09:18:24.674Z,45.79
2017-11-12T09:19:34.359Z,45.6
2017-11-12T09:20:44.428Z,45.99
2017-11-12T09:24:26.416Z,45.24
2017-11-12T09:25:35.768Z,44.85
2017-11-12T09:26:45.082Z,44.95
2017-11-12T09:30:27.233Z,44.29
2017-11-12T09:31:36.916Z,44.2
2017-11-12T09:32:46.551Z,44.2
2017-11-12T09:33:55.537Z,44.01
2017-11-12T09:35:05.501Z,43.81
2017-11-12T09:36:15.470Z,43.93
2017-11-12T09:37:24.117Z,44.12
2017-11-12T09:38:33.465Z,43.54
2017-11-12T09:39:42.767Z,43.84
2017-11-12T09:40:52.095Z,43.45
2017-11-12T09:42:01.291Z,43.54
2017-11-12T09:43:11.817Z,43.74
2017-11-12T09:44:22.094Z,43.84
2017-11-12T09:45:32.167Z,43.85
2017-11-12T09:46:40.813Z,43.74
2017-11-12T09:47:49.576Z,43.47
2017-11-12T09:48:58.907Z,43.28
2017-11-12T09:50:07.602Z,43.37
2017-11-12T09:51:17.258Z,43.08
2017-11-12T09:52:26.565Z,43.08
2017-11-12T09:53:35.597Z,42.89
2017-11-12T09:54:44.948Z,42.89
2017-11-12T09:55:54.302Z,42.82
2017-11-12T09:57:03.304Z,43.1
2017-11-12T09:58:12.362Z,43.2
2017-11-12T09:59:21.644Z,43.2
2017-11-12T10:00:32.976Z,43.1
2017-11-12T10:01:42.036Z,42.82
2017-11-12T10:02:51.477Z,43.01
2017-11-12T10:04:00.921Z,43.1
2017-11-12T10:05:09.961Z,42.91
2017-11-12T10:08:51.749Z,45.67
2017-11-12T10:10:01.608Z,47.07
2017-11-12T10:11:11.999Z,48.76
2017-11-12T10:12:21.002Z,49.6
2017-11-12T10:13:30.935Z,50.83
2017-11-12T10:14:40.609Z,51.57
2017-11-12T10:15:50.646Z,52.29
2017-11-12T10:17:01.267Z,53.23
2017-11-12T10:18:10.935Z,54.19
2017-11-12T10:19:21.431Z,54.25
2017-11-12T10:20:31.398Z,54.25
2017-11-12T10:21:41.833Z,55.19
2017-11-12T10:22:51.289Z,55.55
2017-11-12T10:24:00.960Z,55.93
2017-11-12T10:25:10.599Z,56.41
2017-11-12T10:26:20.965Z,56.67
2017-11-12T10:27:32.147Z,57.15
2017-11-12T10:28:41.340Z,57.21
2017-11-12T10:29:51.742Z,57.5
2017-11-12T10:31:01.799Z,57.41
2017-11-12T10:32:12.365Z,57.95
2017-11-12T10:33:22.581Z,57.95
2017-11-12T10:34:33.061Z,57.86
2017-11-12T10:35:42.848Z,58.44
2017-11-12T10:36:52.330Z,58.12
2017-11-12T10:38:01.149Z,58.31
2017-11-12T10:39:10.578Z,58.4
2017-11-12T10:40:20.000Z,58.22
2017-11-12T10:41:29.673Z,58.31
2017-11-12T10:42:39.178Z,58.22
2017-11-12T10:43:48.832Z,58.37
2017-11-12T10:44:58.473Z,58.66
2017-11-12T10:46:07.906Z,58.76
2017-11-12T10:47:17.213Z,58.37
2017-11-12T10:48:26.561Z,57.54
2017-11-12T10:49:35.548Z,56.49
2017-11-12T10:50:45.242Z,55.36
2017-11-12T10:51:54.577Z,54.15
2017-11-12T10:53:03.921Z,53.67
2017-11-12T10:54:13.942Z,52.64
2017-11-12T10:55:23.593Z,51.23
2017-11-12T10:56:32.312Z,50.87
2017-11-12T10:57:42.017Z,50.01
2017-11-12T10:58:51.464Z,49.46
2017-11-12T11:00:00.198Z,48.9
2017-11-12T11:01:09.217Z,48.25
2017-11-12T11:02:18.369Z,47.58
2017-11-12T11:03:27.721Z,46.93
2017-11-12T11:04:37.044Z,46.36
2017-11-12T11:05:47.061Z,45.99
2017-11-12T11:06:56.434Z,45.42
2017-11-12T11:08:05.833Z,45.44
2017-11-12T11:09:15.491Z,44.96
2017-11-12T11:10:24.871Z,44.89
2017-11-12T11:11:35.087Z,44.59
2017-11-12T11:12:44.674Z,44.59
2017-11-12T11:13:53.994Z,44.11
2017-11-12T11:15:03.030Z,44.04
2017-11-12T11:16:12.405Z,43.85
2017-11-12T11:17:21.800Z,43.58
2017-11-12T11:18:30.794Z,43.67
2017-11-12T11:19:39.777Z,43.19
2017-11-12T11:20:49.090Z,43.12
2017-11-12T11:21:59.109Z,43.12
2017-11-12T11:23:08.185Z,42.73
2017-11-12T11:24:17.518Z,42.63
2017-11-12T11:25:26.814Z,42.73
2017-11-12T11:26:36.765Z,42.73
2017-11-12T11:27:46.986Z,42.93
2017-11-12T11:28:56.323Z,42.93
2017-11-12T11:30:05.999Z,42.93
2017-11-12T11:31:15.864Z,42.83
2017-11-12T11:32:25.792Z,42.73
2017-11-12T11:33:35.641Z,42.94
2017-11-12T11:34:45.108Z,42.85
2017-11-12T11:35:54.911Z,43.04
2017-11-12T11:37:05.042Z,43.04
2017-11-12T11:38:13.695Z,43.04
2017-11-12T11:39:23.676Z,43.04
2017-11-12T11:40:32.639Z,43.24
2017-11-12T11:41:41.956Z,43.04
2017-11-12T11:42:50.710Z,42.94
2017-11-12T11:44:00.097Z,42.75
2017-11-12T11:45:10.795Z,43.14
2017-11-12T11:46:20.458Z,43.14
2017-11-12T11:47:30.083Z,43.24
2017-11-12T11:48:38.734Z,43.24
2017-11-12T11:49:48.045Z,43.14
2017-11-12T11:50:57.673Z,43.16
2017-11-12T11:52:06.822Z,43.16
2017-11-12T11:53:16.833Z,43.06
2017-11-12T11:54:26.585Z,43.16
2017-11-12T11:55:36.223Z,42.77
2017-11-12T11:56:45.193Z,42.97
2017-11-12T11:57:54.501Z,42.97
2017-11-12T11:59:03.800Z,42.87
2017-11-12T12:00:12.761Z,42.97
2017-11-12T12:01:21.725Z,43.06
2017-11-12T12:02:31.032Z,43.26
2017-11-12T12:03:40.364Z,43.16
2017-11-12T12:04:49.343Z,43.54
2017-11-12T12:05:58.767Z,43.64
2017-11-12T12:07:08.390Z,43.74
2017-11-12T12:08:17.402Z,43.64
2017-11-12T12:09:27.035Z,43.64
2017-11-12T12:10:36.040Z,43.54
2017-11-12T12:11:45.514Z,43.84
2017-11-12T12:12:54.519Z,43.84
2017-11-12T12:14:03.829Z,43.64
2017-11-12T12:15:13.482Z,43.64
2017-11-12T12:16:23.204Z,43.93
2017-11-12T12:17:32.900Z,44.12
2017-11-12T12:18:41.551Z,44.12
2017-11-12T12:19:50.530Z,44.22
2017-11-12T12:21:00.161Z,44.12
2017-11-12T12:22:09.158Z,43.93
2017-11-12T12:23:18.134Z,43.93
2017-11-12T12:24:27.131Z,43.93
2017-11-12T12:25:36.514Z,44.03
2017-11-12T12:26:46.136Z,43.93
2017-11-12T12:27:55.107Z,43.93
2017-11-12T12:29:04.401Z,43.84
2017-11-12T12:30:13.733Z,44.42
2017-11-12T12:31:22.707Z,44.22
2017-11-12T12:32:32.000Z,44.12
2017-11-12T12:33:41.379Z,44.12
2017-11-12T12:34:50.672Z,44.03
2017-11-12T12:35:59.988Z,44.12
2017-11-12T12:37:09.300Z,44.12
2017-11-12T12:38:17.963Z,44.32
2017-11-12T12:39:27.264Z,44.42
2017-11-12T12:40:36.563Z,44.6
2017-11-12T12:41:45.889Z,44.8
2017-11-12T12:42:54.562Z,44.7
2017-11-12T12:44:03.864Z,44.51
2017-11-12T12:45:12.852Z,44.42
2017-11-12T12:46:21.875Z,44.8
2017-11-12T12:47:31.531Z,44.9
2017-11-12T12:48:40.837Z,44.9
2017-11-12T12:49:50.505Z,45
2017-11-12T12:50:59.509Z,45.09
2017-11-12T12:52:08.506Z,45.18
2017-11-12T12:53:17.132Z,45.28
2017-11-12T12:54:25.766Z,45.28
2017-11-12T12:55:34.751Z,45.09
2017-11-12T12:56:44.050Z,45.38
2017-11-12T12:57:53.346Z,45.57
2017-11-12T12:59:02.648Z,46.06
2017-11-12T13:00:11.637Z,45.86
2017-11-12T13:01:20.613Z,45.48
2017-11-12T13:02:30.275Z,45.57
2017-11-12T13:03:38.915Z,45.57
2017-11-12T13:04:48.570Z,45.36
2017-11-12T13:05:58.104Z,45.86
2017-11-12T13:07:07.157Z,46.03
2017-11-12T13:08:15.791Z,46.13
2017-11-12T13:09:24.796Z,46.03
2017-11-12T13:10:33.766Z,45.84
2017-11-12T13:11:43.064Z,45.75
2017-11-12T13:12:51.766Z,45.94
2017-11-12T13:14:00.745Z,46.23
2017-11-12T13:15:09.727Z,46.42
2017-11-12T13:16:19.022Z,46.42
2017-11-12T13:17:28.647Z,46.42
2017-11-12T13:18:38.064Z,46.61
2017-11-12T13:19:47.801Z,46.61
2017-11-12T13:20:58.392Z,46.42
2017-11-12T13:22:07.371Z,46.71
2017-11-12T13:23:16.664Z,46.71
2017-11-12T13:24:25.653Z,46.81
2017-11-12T13:25:34.707Z,47.29
2017-11-12T13:26:43.683Z,47.38
2017-11-12T13:27:52.379Z,47.29
2017-11-12T13:29:01.350Z,47.09
2017-11-12T13:30:11.309Z,47.09
2017-11-12T13:31:19.955Z,47.19
2017-11-12T13:32:29.023Z,47.29
2017-11-12T13:33:38.012Z,47.38
2017-11-12T13:34:47.344Z,47.38
2017-11-12T13:35:56.982Z,47.29
2017-11-12T13:37:07.061Z,47.09
2017-11-12T13:38:16.366Z,47.38
2017-11-12T13:39:27.042Z,47.38
2017-11-12T13:40:36.067Z,47.38
2017-11-12T13:41:45.393Z,47.48
2017-11-12T13:42:55.028Z,47.38
2017-11-12T13:44:03.996Z,47.48
2017-11-12T13:45:13.631Z,47.45
2017-11-12T13:46:24.231Z,47.38
2017-11-12T13:47:33.201Z,47.27
2017-11-12T13:48:42.554Z,47.48
2017-11-12T13:49:51.286Z,47.48
2017-11-12T13:51:01.252Z,47.19
2017-11-12T13:52:10.611Z,47.67
2017-11-12T13:53:19.899Z,47.67
2017-11-12T13:54:28.927Z,47.55
2017-11-12T13:55:37.903Z,47.65
2017-11-12T13:56:47.204Z,47.45
2017-11-12T13:57:56.545Z,47.85
2017-11-12T13:59:06.268Z,47.75
2017-11-12T14:00:16.318Z,48.42
2017-11-12T14:01:26.099Z,48.13
2017-11-12T14:02:36.067Z,48.23
2017-11-12T14:03:45.379Z,48.33
2017-11-12T14:04:54.694Z,48.03
2017-11-12T14:06:04.013Z,48.03
2017-11-12T14:07:12.761Z,48.03
2017-11-12T14:08:22.421Z,48.03
2017-11-12T14:09:31.729Z,48.13
2017-11-12T14:10:40.713Z,48.42
2017-11-12T14:11:50.346Z,48.33
2017-11-12T14:12:58.993Z,48.23
2017-11-12T14:14:07.963Z,48.23
2017-11-12T14:15:17.266Z,48.33
2017-11-12T14:16:26.892Z,48.42
2017-11-12T14:17:36.195Z,48.42
2017-11-12T14:18:45.159Z,48.61
2017-11-12T14:19:54.457Z,48.61
2017-11-12T14:21:04.060Z,48.23
2017-11-12T14:22:14.007Z,48.81
2017-11-12T14:23:23.642Z,48.81
2017-11-12T14:24:32.300Z,48.9
2017-11-12T14:25:41.630Z,48.61
2017-11-12T14:26:50.320Z,48.61
2017-11-12T14:27:58.987Z,48.52
2017-11-12T14:29:08.284Z,48.52
2017-11-12T14:30:18.080Z,48.52
2017-11-12T14:31:27.386Z,48.61
2017-11-12T14:32:36.690Z,48.61
2017-11-12T14:33:46.335Z,48.52
2017-11-12T14:34:55.644Z,48.71
2017-11-12T14:36:05.280Z,48.59
2017-11-12T14:37:13.904Z,48.88
2017-11-12T14:38:23.239Z,49.17
2017-11-12T14:39:32.234Z,49.43
2017-11-12T14:40:41.223Z,49.73
2017-11-12T14:41:50.546Z,49.91
2017-11-12T14:42:59.878Z,49.91
2017-11-12T14:44:08.539Z,49.82
2017-11-12T14:45:17.863Z,49.73
2017-11-12T14:46:27.180Z,49.91
2017-11-12T14:47:36.479Z,50.01
2017-11-12T14:48:45.447Z,50.01
2017-11-12T14:49:54.410Z,50.11
2017-11-12T14:51:04.030Z,50.3
2017-11-12T14:52:13.991Z,49.63
2017-11-12T14:53:24.042Z,49.73
2017-11-12T14:54:32.674Z,49.63
2017-11-12T14:55:41.340Z,49.91
2017-11-12T14:56:51.661Z,49.91
2017-11-12T14:58:00.632Z,49.82
2017-11-12T14:59:09.274Z,49.43
2017-11-12T15:00:18.568Z,49.34
2017-11-12T15:01:28.532Z,49.24
2017-11-12T15:02:38.204Z,49.43
2017-11-12T15:03:46.850Z,49.53
2017-11-12T15:04:55.812Z,49.53
2017-11-12T15:06:05.468Z,49.15
2017-11-12T15:07:14.636Z,48.95
2017-11-12T15:08:24.698Z,48.95
2017-11-12T15:09:33.697Z,48.86
2017-11-12T15:10:42.690Z,48.57
2017-11-12T15:11:52.335Z,48.95
2017-11-12T15:13:01.649Z,48.95
2017-11-12T15:14:11.280Z,48.86
2017-11-12T15:15:20.607Z,48.66
2017-11-12T15:16:29.580Z,48.86
2017-11-12T15:17:38.870Z,48.76
2017-11-12T15:18:47.836Z,48.86
2017-11-12T15:19:56.474Z,48.66
2017-11-12T15:21:05.449Z,48.66
2017-11-12T15:22:14.074Z,48.95
2017-11-12T15:23:23.058Z,48.76
2017-11-12T15:24:32.036Z,48.86
2017-11-12T15:25:41.657Z,48.76
2017-11-12T15:26:50.966Z,48.66
2017-11-12T15:28:00.263Z,48.66
2017-11-12T15:29:09.901Z,48.38
2017-11-12T15:30:19.527Z,48.66
2017-11-12T15:31:28.493Z,49.05
2017-11-12T15:32:37.484Z,49.24
2017-11-12T15:33:46.885Z,48.38